sensor_id;sensor_type;location;lat;lon;timestamp;P1;durP1;ratioP1;P2;durP2;ratioP2
4011;SDS011;2020;48.682;9.024;2023-08-30T00:00:39;6.20;;;5.80;;
4011;SDS011;2020;48.682;9.024;2023-08-30T00:03:04;5.97;;;5.67;;
4011;SDS011;2020;48.682;9.024;2023-08-30T00:05:31;6.27;;;5.87;;
4011;SDS011;2020;48.682;9.024;2023-08-30T00:07:56;5.80;;;5.40;;
4011;SDS011;2020;48.682;9.024;2023-08-30T00:10:21;5.40;;;5.10;;
4011;SDS011;2020;48.682;9.024;2023-08-30T00:12:46;6.10;;;5.70;;
4011;SDS011;2020;48.682;9.024;2023-08-30T00:15:12;6.23;;;5.83;;
4011;SDS011;2020;48.682;9.024;2023-08-30T00:17:37;6.20;;;5.90;;
4011;SDS011;2020;48.682;9.024;2023-08-30T00:20:02;6.63;;;6.23;;
4011;SDS011;2020;48.682;9.024;2023-08-30T00:22:28;7.00;;;6.50;;
4011;SDS011;2020;48.682;9.024;2023-08-30T00:24:53;6.53;;;6.13;;
4011;SDS011;2020;48.682;9.024;2023-08-30T00:27:19;6.70;;;6.20;;
4011;SDS011;2020;48.682;9.024;2023-08-30T00:29:45;6.53;;;6.13;;
4011;SDS011;2020;48.682;9.024;2023-08-30T00:32:11;6.83;;;6.33;;
4011;SDS011;2020;48.682;9.024;2023-08-30T00:34:36;6.57;;;5.97;;
4011;SDS011;2020;48.682;9.024;2023-08-30T00:37:01;6.40;;;6.00;;
4011;SDS011;2020;48.682;9.024;2023-08-30T00:39:27;6.47;;;6.00;;
4011;SDS011;2020;48.682;9.024;2023-08-30T00:41:52;6.47;;;5.83;;
4011;SDS011;2020;48.682;9.024;2023-08-30T00:44:17;7.43;;;6.83;;
4011;SDS011;2020;48.682;9.024;2023-08-30T00:46:43;7.30;;;6.70;;
4011;SDS011;2020;48.682;9.024;2023-08-30T00:49:08;6.97;;;6.30;;
4011;SDS011;2020;48.682;9.024;2023-08-30T00:51:33;6.70;;;6.17;;
4011;SDS011;2020;48.682;9.024;2023-08-30T00:54:00;7.40;;;6.90;;
4011;SDS011;2020;48.682;9.024;2023-08-30T00:56:27;7.17;;;6.60;;
4011;SDS011;2020;48.682;9.024;2023-08-30T00:58:53;7.30;;;6.70;;
4011;SDS011;2020;48.682;9.024;2023-08-30T01:01:19;6.80;;;6.37;;
4011;SDS011;2020;48.682;9.024;2023-08-30T01:03:44;6.80;;;6.30;;
4011;SDS011;2020;48.682;9.024;2023-08-30T01:06:10;6.83;;;6.40;;
4011;SDS011;2020;48.682;9.024;2023-08-30T01:08:35;6.67;;;6.17;;
4011;SDS011;2020;48.682;9.024;2023-08-30T01:11:11;7.37;;;6.70;;
4011;SDS011;2020;48.682;9.024;2023-08-30T01:13:49;6.37;;;5.87;;
4011;SDS011;2020;48.682;9.024;2023-08-30T01:16:18;7.60;;;7.00;;
4011;SDS011;2020;48.682;9.024;2023-08-30T01:18:45;7.77;;;7.10;;
4011;SDS011;2020;48.682;9.024;2023-08-30T01:21:12;7.40;;;6.80;;
4011;SDS011;2020;48.682;9.024;2023-08-30T01:23:49;7.30;;;6.80;;
4011;SDS011;2020;48.682;9.024;2023-08-30T01:26:38;7.73;;;7.13;;
4011;SDS011;2020;48.682;9.024;2023-08-30T01:29:09;6.77;;;5.80;;
4011;SDS011;2020;48.682;9.024;2023-08-30T01:31:37;6.87;;;6.20;;
4011;SDS011;2020;48.682;9.024;2023-08-30T01:34:04;7.53;;;6.87;;
4011;SDS011;2020;48.682;9.024;2023-08-30T01:36:30;6.30;;;5.90;;
4011;SDS011;2020;48.682;9.024;2023-08-30T01:38:57;7.20;;;6.60;;
4011;SDS011;2020;48.682;9.024;2023-08-30T01:41:23;7.07;;;6.57;;
4011;SDS011;2020;48.682;9.024;2023-08-30T01:43:50;7.60;;;7.00;;
4011;SDS011;2020;48.682;9.024;2023-08-30T01:46:17;6.43;;;6.03;;
4011;SDS011;2020;48.682;9.024;2023-08-30T01:48:44;8.60;;;7.90;;
4011;SDS011;2020;48.682;9.024;2023-08-30T01:51:13;7.60;;;6.90;;
4011;SDS011;2020;48.682;9.024;2023-08-30T01:53:40;7.63;;;7.00;;
4011;SDS011;2020;48.682;9.024;2023-08-30T01:56:07;7.93;;;7.30;;
4011;SDS011;2020;48.682;9.024;2023-08-30T01:58:33;8.43;;;6.90;;
4011;SDS011;2020;48.682;9.024;2023-08-30T02:00:58;6.67;;;6.17;;
4011;SDS011;2020;48.682;9.024;2023-08-30T02:03:25;7.57;;;7.00;;
4011;SDS011;2020;48.682;9.024;2023-08-30T02:08:22;8.90;;;8.10;;
4011;SDS011;2020;48.682;9.024;2023-08-30T02:10:56;8.10;;;7.40;;
4011;SDS011;2020;48.682;9.024;2023-08-30T02:13:29;8.20;;;7.50;;
4011;SDS011;2020;48.682;9.024;2023-08-30T02:15:55;7.50;;;6.90;;
4011;SDS011;2020;48.682;9.024;2023-08-30T02:18:23;7.97;;;7.33;;
4011;SDS011;2020;48.682;9.024;2023-08-30T02:20:50;7.70;;;7.00;;
4011;SDS011;2020;48.682;9.024;2023-08-30T02:23:15;7.90;;;7.20;;
4011;SDS011;2020;48.682;9.024;2023-08-30T02:25:40;6.60;;;6.17;;
4011;SDS011;2020;48.682;9.024;2023-08-30T02:28:06;7.73;;;7.20;;
4011;SDS011;2020;48.682;9.024;2023-08-30T02:30:31;7.90;;;7.30;;
4011;SDS011;2020;48.682;9.024;2023-08-30T02:32:56;7.53;;;6.93;;
4011;SDS011;2020;48.682;9.024;2023-08-30T02:35:21;7.60;;;6.90;;
4011;SDS011;2020;48.682;9.024;2023-08-30T02:37:47;6.70;;;6.30;;
4011;SDS011;2020;48.682;9.024;2023-08-30T02:40:12;6.23;;;5.83;;
4011;SDS011;2020;48.682;9.024;2023-08-30T02:42:37;8.93;;;7.30;;
4011;SDS011;2020;48.682;9.024;2023-08-30T02:45:02;6.73;;;6.23;;
4011;SDS011;2020;48.682;9.024;2023-08-30T02:47:28;6.90;;;6.30;;
4011;SDS011;2020;48.682;9.024;2023-08-30T02:49:53;8.50;;;7.53;;
4011;SDS011;2020;48.682;9.024;2023-08-30T02:52:18;8.27;;;7.70;;
4011;SDS011;2020;48.682;9.024;2023-08-30T02:54:44;7.03;;;6.33;;
4011;SDS011;2020;48.682;9.024;2023-08-30T02:57:09;5.40;;;5.07;;
4011;SDS011;2020;48.682;9.024;2023-08-30T02:59:34;7.77;;;6.90;;
4011;SDS011;2020;48.682;9.024;2023-08-30T03:01:59;7.13;;;6.57;;
4011;SDS011;2020;48.682;9.024;2023-08-30T03:04:25;7.83;;;7.23;;
4011;SDS011;2020;48.682;9.024;2023-08-30T03:06:50;6.17;;;5.77;;
4011;SDS011;2020;48.682;9.024;2023-08-30T03:09:15;7.90;;;7.20;;
4011;SDS011;2020;48.682;9.024;2023-08-30T03:11:41;7.00;;;6.40;;
4011;SDS011;2020;48.682;9.024;2023-08-30T03:14:06;7.87;;;7.17;;
4011;SDS011;2020;48.682;9.024;2023-08-30T03:16:32;9.67;;;8.50;;
4011;SDS011;2020;48.682;9.024;2023-08-30T03:18:57;7.17;;;6.73;;
4011;SDS011;2020;48.682;9.024;2023-08-30T03:21:23;6.97;;;6.47;;
4011;SDS011;2020;48.682;9.024;2023-08-30T03:23:48;7.70;;;7.00;;
4011;SDS011;2020;48.682;9.024;2023-08-30T03:26:14;6.77;;;6.27;;
4011;SDS011;2020;48.682;9.024;2023-08-30T03:28:41;7.53;;;6.93;;
4011;SDS011;2020;48.682;9.024;2023-08-30T03:31:20;8.67;;;7.93;;
4011;SDS011;2020;48.682;9.024;2023-08-30T03:33:49;7.00;;;6.47;;
4011;SDS011;2020;48.682;9.024;2023-08-30T03:36:15;7.87;;;7.23;;
4011;SDS011;2020;48.682;9.024;2023-08-30T03:38:42;7.97;;;7.40;;
4011;SDS011;2020;48.682;9.024;2023-08-30T03:41:08;7.37;;;6.87;;
4011;SDS011;2020;48.682;9.024;2023-08-30T03:43:34;7.37;;;6.70;;
4011;SDS011;2020;48.682;9.024;2023-08-30T03:46:00;9.37;;;8.50;;
4011;SDS011;2020;48.682;9.024;2023-08-30T03:48:26;7.87;;;7.27;;
4011;SDS011;2020;48.682;9.024;2023-08-30T03:50:52;7.60;;;7.00;;
4011;SDS011;2020;48.682;9.024;2023-08-30T03:53:17;7.50;;;6.90;;
4011;SDS011;2020;48.682;9.024;2023-08-30T03:55:42;7.47;;;6.77;;
4011;SDS011;2020;48.682;9.024;2023-08-30T03:58:07;7.33;;;6.80;;
4011;SDS011;2020;48.682;9.024;2023-08-30T04:00:35;8.77;;;7.80;;
4011;SDS011;2020;48.682;9.024;2023-08-30T04:03:01;7.57;;;6.90;;
4011;SDS011;2020;48.682;9.024;2023-08-30T04:05:27;7.37;;;6.77;;
4011;SDS011;2020;48.682;9.024;2023-08-30T04:07:57;8.00;;;7.40;;
4011;SDS011;2020;48.682;9.024;2023-08-30T04:10:22;7.23;;;6.63;;
4011;SDS011;2020;48.682;9.024;2023-08-30T04:12:48;7.00;;;6.53;;
4011;SDS011;2020;48.682;9.024;2023-08-30T04:15:13;7.53;;;6.83;;
4011;SDS011;2020;48.682;9.024;2023-08-30T04:17:40;7.20;;;6.60;;
4011;SDS011;2020;48.682;9.024;2023-08-30T04:20:05;7.80;;;7.00;;
4011;SDS011;2020;48.682;9.024;2023-08-30T04:22:31;7.00;;;6.60;;
4011;SDS011;2020;48.682;9.024;2023-08-30T04:24:59;8.17;;;7.37;;
4011;SDS011;2020;48.682;9.024;2023-08-30T04:27:24;7.33;;;6.70;;
4011;SDS011;2020;48.682;9.024;2023-08-30T04:29:50;6.57;;;6.07;;
4011;SDS011;2020;48.682;9.024;2023-08-30T04:32:17;7.10;;;6.50;;
4011;SDS011;2020;48.682;9.024;2023-08-30T04:34:42;6.87;;;6.27;;
4011;SDS011;2020;48.682;9.024;2023-08-30T04:37:08;7.17;;;6.57;;
4011;SDS011;2020;48.682;9.024;2023-08-30T04:39:33;8.03;;;7.43;;
4011;SDS011;2020;48.682;9.024;2023-08-30T04:41:58;6.77;;;6.17;;
4011;SDS011;2020;48.682;9.024;2023-08-30T04:44:24;8.20;;;7.50;;
4011;SDS011;2020;48.682;9.024;2023-08-30T04:46:50;7.90;;;7.30;;
4011;SDS011;2020;48.682;9.024;2023-08-30T04:49:17;7.63;;;7.13;;
4011;SDS011;2020;48.682;9.024;2023-08-30T04:51:42;8.50;;;7.60;;
4011;SDS011;2020;48.682;9.024;2023-08-30T04:54:07;8.60;;;7.80;;
4011;SDS011;2020;48.682;9.024;2023-08-30T04:56:32;7.73;;;7.13;;
4011;SDS011;2020;48.682;9.024;2023-08-30T04:58:58;7.27;;;6.63;;
4011;SDS011;2020;48.682;9.024;2023-08-30T05:01:23;6.83;;;6.30;;
4011;SDS011;2020;48.682;9.024;2023-08-30T05:03:48;14.43;;;8.37;;
4011;SDS011;2020;48.682;9.024;2023-08-30T05:06:14;7.53;;;6.80;;
4011;SDS011;2020;48.682;9.024;2023-08-30T05:08:41;6.50;;;6.10;;
4011;SDS011;2020;48.682;9.024;2023-08-30T05:11:06;8.93;;;6.77;;
4011;SDS011;2020;48.682;9.024;2023-08-30T05:13:32;8.43;;;7.63;;
4011;SDS011;2020;48.682;9.024;2023-08-30T05:15:57;7.70;;;7.07;;
4011;SDS011;2020;48.682;9.024;2023-08-30T05:18:22;7.90;;;7.20;;
4011;SDS011;2020;48.682;9.024;2023-08-30T05:20:48;10.80;;;8.13;;
4011;SDS011;2020;48.682;9.024;2023-08-30T05:23:13;8.17;;;7.37;;
4011;SDS011;2020;48.682;9.024;2023-08-30T05:25:38;8.07;;;7.37;;
4011;SDS011;2020;48.682;9.024;2023-08-30T05:28:03;7.53;;;6.93;;
4011;SDS011;2020;48.682;9.024;2023-08-30T05:30:29;7.30;;;6.80;;
4011;SDS011;2020;48.682;9.024;2023-08-30T05:32:54;6.90;;;6.30;;
4011;SDS011;2020;48.682;9.024;2023-08-30T05:35:20;7.87;;;7.13;;
4011;SDS011;2020;48.682;9.024;2023-08-30T05:37:45;8.47;;;7.77;;
4011;SDS011;2020;48.682;9.024;2023-08-30T05:40:10;7.40;;;6.80;;
4011;SDS011;2020;48.682;9.024;2023-08-30T05:42:40;7.70;;;7.10;;
4011;SDS011;2020;48.682;9.024;2023-08-30T05:45:05;8.03;;;7.30;;
4011;SDS011;2020;48.682;9.024;2023-08-30T05:47:31;9.23;;;6.90;;
4011;SDS011;2020;48.682;9.024;2023-08-30T05:49:57;7.17;;;6.47;;
4011;SDS011;2020;48.682;9.024;2023-08-30T05:52:22;8.53;;;7.73;;
4011;SDS011;2020;48.682;9.024;2023-08-30T05:54:47;7.97;;;7.20;;
4011;SDS011;2020;48.682;9.024;2023-08-30T05:57:13;7.13;;;6.60;;
4011;SDS011;2020;48.682;9.024;2023-08-30T05:59:38;7.00;;;6.30;;
4011;SDS011;2020;48.682;9.024;2023-08-30T06:02:03;6.93;;;6.37;;
4011;SDS011;2020;48.682;9.024;2023-08-30T06:04:29;7.00;;;6.50;;
4011;SDS011;2020;48.682;9.024;2023-08-30T06:06:54;7.13;;;6.63;;
4011;SDS011;2020;48.682;9.024;2023-08-30T06:09:20;10.87;;;7.30;;
4011;SDS011;2020;48.682;9.024;2023-08-30T06:11:45;8.03;;;7.23;;
4011;SDS011;2020;48.682;9.024;2023-08-30T06:14:10;7.43;;;6.77;;
4011;SDS011;2020;48.682;9.024;2023-08-30T06:16:35;6.93;;;6.37;;
4011;SDS011;2020;48.682;9.024;2023-08-30T06:19:01;7.80;;;7.10;;
4011;SDS011;2020;48.682;9.024;2023-08-30T06:21:26;7.87;;;7.17;;
4011;SDS011;2020;48.682;9.024;2023-08-30T06:23:51;7.33;;;6.83;;
4011;SDS011;2020;48.682;9.024;2023-08-30T06:26:17;7.67;;;7.00;;
4011;SDS011;2020;48.682;9.024;2023-08-30T06:28:42;7.83;;;6.87;;
4011;SDS011;2020;48.682;9.024;2023-08-30T06:31:08;7.37;;;6.67;;
4011;SDS011;2020;48.682;9.024;2023-08-30T06:33:33;6.27;;;5.77;;
4011;SDS011;2020;48.682;9.024;2023-08-30T06:35:58;6.60;;;6.07;;
4011;SDS011;2020;48.682;9.024;2023-08-30T06:38:23;7.50;;;6.80;;
4011;SDS011;2020;48.682;9.024;2023-08-30T06:40:49;5.80;;;5.40;;
4011;SDS011;2020;48.682;9.024;2023-08-30T06:43:14;8.27;;;7.03;;
4011;SDS011;2020;48.682;9.024;2023-08-30T06:45:40;7.40;;;6.70;;
4011;SDS011;2020;48.682;9.024;2023-08-30T06:48:06;8.60;;;7.90;;
4011;SDS011;2020;48.682;9.024;2023-08-30T06:50:32;6.83;;;6.33;;
4011;SDS011;2020;48.682;9.024;2023-08-30T06:52:58;8.37;;;7.43;;
4011;SDS011;2020;48.682;9.024;2023-08-30T06:55:23;7.40;;;6.80;;
4011;SDS011;2020;48.682;9.024;2023-08-30T06:57:49;6.43;;;5.93;;
4011;SDS011;2020;48.682;9.024;2023-08-30T07:00:15;6.53;;;5.80;;
4011;SDS011;2020;48.682;9.024;2023-08-30T07:02:40;7.30;;;6.60;;
4011;SDS011;2020;48.682;9.024;2023-08-30T07:05:09;7.30;;;6.60;;
4011;SDS011;2020;48.682;9.024;2023-08-30T07:07:35;6.83;;;6.20;;
4011;SDS011;2020;48.682;9.024;2023-08-30T07:10:00;6.83;;;6.30;;
4011;SDS011;2020;48.682;9.024;2023-08-30T07:12:25;6.07;;;5.57;;
4011;SDS011;2020;48.682;9.024;2023-08-30T07:14:51;6.17;;;5.70;;
4011;SDS011;2020;48.682;9.024;2023-08-30T07:17:16;7.67;;;6.13;;
4011;SDS011;2020;48.682;9.024;2023-08-30T07:19:41;5.80;;;5.40;;
4011;SDS011;2020;48.682;9.024;2023-08-30T07:22:07;7.13;;;5.57;;
4011;SDS011;2020;48.682;9.024;2023-08-30T07:24:32;5.70;;;5.27;;
4011;SDS011;2020;48.682;9.024;2023-08-30T07:26:57;6.20;;;5.70;;
4011;SDS011;2020;48.682;9.024;2023-08-30T07:29:23;4.80;;;4.50;;
4011;SDS011;2020;48.682;9.024;2023-08-30T07:31:48;6.27;;;5.17;;
4011;SDS011;2020;48.682;9.024;2023-08-30T07:34:16;6.33;;;5.90;;
4011;SDS011;2020;48.682;9.024;2023-08-30T07:36:41;6.23;;;5.70;;
4011;SDS011;2020;48.682;9.024;2023-08-30T07:39:07;6.73;;;6.10;;
4011;SDS011;2020;48.682;9.024;2023-08-30T07:41:33;6.90;;;6.40;;
4011;SDS011;2020;48.682;9.024;2023-08-30T07:43:59;7.60;;;6.97;;
4011;SDS011;2020;48.682;9.024;2023-08-30T07:46:24;5.87;;;5.27;;
4011;SDS011;2020;48.682;9.024;2023-08-30T07:48:50;6.07;;;5.60;;
4011;SDS011;2020;48.682;9.024;2023-08-30T07:51:15;7.10;;;6.50;;
4011;SDS011;2020;48.682;9.024;2023-08-30T07:53:41;6.23;;;5.83;;
4011;SDS011;2020;48.682;9.024;2023-08-30T07:56:06;6.00;;;5.70;;
4011;SDS011;2020;48.682;9.024;2023-08-30T07:58:32;6.70;;;6.10;;
4011;SDS011;2020;48.682;9.024;2023-08-30T08:00:57;7.33;;;6.73;;
4011;SDS011;2020;48.682;9.024;2023-08-30T08:03:23;6.13;;;5.60;;
4011;SDS011;2020;48.682;9.024;2023-08-30T08:05:48;6.33;;;5.83;;
4011;SDS011;2020;48.682;9.024;2023-08-30T08:08:14;5.83;;;5.43;;
4011;SDS011;2020;48.682;9.024;2023-08-30T08:10:39;8.90;;;6.00;;
4011;SDS011;2020;48.682;9.024;2023-08-30T08:13:05;5.37;;;5.03;;
4011;SDS011;2020;48.682;9.024;2023-08-30T08:15:30;5.50;;;5.20;;
4011;SDS011;2020;48.682;9.024;2023-08-30T08:17:56;7.23;;;5.47;;
4011;SDS011;2020;48.682;9.024;2023-08-30T08:20:22;5.70;;;5.30;;
4011;SDS011;2020;48.682;9.024;2023-08-30T08:22:47;5.60;;;5.20;;
4011;SDS011;2020;48.682;9.024;2023-08-30T08:25:12;6.77;;;6.27;;
4011;SDS011;2020;48.682;9.024;2023-08-30T08:27:38;6.37;;;5.87;;
4011;SDS011;2020;48.682;9.024;2023-08-30T08:30:03;5.83;;;5.43;;
4011;SDS011;2020;48.682;9.024;2023-08-30T08:32:30;6.60;;;6.10;;
4011;SDS011;2020;48.682;9.024;2023-08-30T08:34:56;5.07;;;4.77;;
4011;SDS011;2020;48.682;9.024;2023-08-30T08:37:22;6.57;;;6.07;;
4011;SDS011;2020;48.682;9.024;2023-08-30T08:39:47;7.40;;;6.73;;
4011;SDS011;2020;48.682;9.024;2023-08-30T08:42:17;6.60;;;6.10;;
4011;SDS011;2020;48.682;9.024;2023-08-30T08:44:45;6.90;;;6.47;;
4011;SDS011;2020;48.682;9.024;2023-08-30T08:47:11;7.30;;;6.60;;
4011;SDS011;2020;48.682;9.024;2023-08-30T08:49:36;7.07;;;6.53;;
4011;SDS011;2020;48.682;9.024;2023-08-30T08:52:02;5.40;;;5.10;;
4011;SDS011;2020;48.682;9.024;2023-08-30T08:54:29;5.57;;;5.27;;
4011;SDS011;2020;48.682;9.024;2023-08-30T08:56:54;7.03;;;5.60;;
4011;SDS011;2020;48.682;9.024;2023-08-30T08:59:20;6.37;;;5.87;;
4011;SDS011;2020;48.682;9.024;2023-08-30T09:01:46;5.23;;;4.80;;
4011;SDS011;2020;48.682;9.024;2023-08-30T09:04:12;6.97;;;6.27;;
4011;SDS011;2020;48.682;9.024;2023-08-30T09:06:37;6.20;;;5.80;;
4011;SDS011;2020;48.682;9.024;2023-08-30T09:09:04;7.27;;;6.63;;
4011;SDS011;2020;48.682;9.024;2023-08-30T09:11:30;6.87;;;6.00;;
4011;SDS011;2020;48.682;9.024;2023-08-30T09:13:56;6.73;;;6.13;;
4011;SDS011;2020;48.682;9.024;2023-08-30T09:16:22;5.80;;;5.50;;
4011;SDS011;2020;48.682;9.024;2023-08-30T09:18:57;5.17;;;4.87;;
4011;SDS011;2020;48.682;9.024;2023-08-30T09:21:24;5.30;;;5.00;;
4011;SDS011;2020;48.682;9.024;2023-08-30T09:23:56;5.27;;;4.97;;
4011;SDS011;2020;48.682;9.024;2023-08-30T09:26:22;4.03;;;3.87;;
4011;SDS011;2020;48.682;9.024;2023-08-30T09:28:47;5.93;;;5.50;;
4011;SDS011;2020;48.682;9.024;2023-08-30T09:31:16;4.20;;;4.00;;
4011;SDS011;2020;48.682;9.024;2023-08-30T09:33:45;5.13;;;4.83;;
4011;SDS011;2020;48.682;9.024;2023-08-30T09:36:13;5.13;;;4.73;;
4011;SDS011;2020;48.682;9.024;2023-08-30T09:38:38;4.17;;;3.80;;
4011;SDS011;2020;48.682;9.024;2023-08-30T09:41:04;4.43;;;4.10;;
4011;SDS011;2020;48.682;9.024;2023-08-30T09:43:29;4.40;;;4.20;;
4011;SDS011;2020;48.682;9.024;2023-08-30T09:45:55;4.90;;;4.50;;
4011;SDS011;2020;48.682;9.024;2023-08-30T09:48:21;3.53;;;3.43;;
4011;SDS011;2020;48.682;9.024;2023-08-30T09:50:47;4.30;;;4.00;;
4011;SDS011;2020;48.682;9.024;2023-08-30T09:53:19;4.67;;;4.47;;
4011;SDS011;2020;48.682;9.024;2023-08-30T09:55:46;4.77;;;4.57;;
4011;SDS011;2020;48.682;9.024;2023-08-30T09:58:13;4.87;;;4.47;;
4011;SDS011;2020;48.682;9.024;2023-08-30T10:00:40;8.00;;;4.10;;
4011;SDS011;2020;48.682;9.024;2023-08-30T10:03:06;4.53;;;4.23;;
4011;SDS011;2020;48.682;9.024;2023-08-30T10:05:32;3.90;;;3.80;;
4011;SDS011;2020;48.682;9.024;2023-08-30T10:07:58;3.10;;;3.00;;
4011;SDS011;2020;48.682;9.024;2023-08-30T10:10:24;3.70;;;3.60;;
4011;SDS011;2020;48.682;9.024;2023-08-30T10:12:51;3.93;;;3.77;;
4011;SDS011;2020;48.682;9.024;2023-08-30T10:15:16;3.90;;;3.80;;
4011;SDS011;2020;48.682;9.024;2023-08-30T10:17:44;3.67;;;3.50;;
4011;SDS011;2020;48.682;9.024;2023-08-30T10:20:11;3.03;;;2.93;;
4011;SDS011;2020;48.682;9.024;2023-08-30T10:22:37;3.80;;;3.70;;
4011;SDS011;2020;48.682;9.024;2023-08-30T10:25:11;3.60;;;3.33;;
4011;SDS011;2020;48.682;9.024;2023-08-30T10:27:43;2.83;;;2.73;;
4011;SDS011;2020;48.682;9.024;2023-08-30T10:30:12;2.83;;;2.73;;
4011;SDS011;2020;48.682;9.024;2023-08-30T10:32:43;1.87;;;1.87;;
4011;SDS011;2020;48.682;9.024;2023-08-30T10:35:12;2.57;;;2.47;;
4011;SDS011;2020;48.682;9.024;2023-08-30T10:37:38;4.50;;;2.70;;
4011;SDS011;2020;48.682;9.024;2023-08-30T10:40:04;3.73;;;3.37;;
4011;SDS011;2020;48.682;9.024;2023-08-30T10:42:31;3.03;;;2.93;;
4011;SDS011;2020;48.682;9.024;2023-08-30T10:47:27;2.57;;;2.53;;
4011;SDS011;2020;48.682;9.024;2023-08-30T10:49:56;2.90;;;2.80;;
4011;SDS011;2020;48.682;9.024;2023-08-30T10:52:26;3.27;;;3.17;;
4011;SDS011;2020;48.682;9.024;2023-08-30T10:54:53;2.50;;;2.50;;
4011;SDS011;2020;48.682;9.024;2023-08-30T10:57:29;2.97;;;2.87;;
4011;SDS011;2020;48.682;9.024;2023-08-30T11:00:03;2.30;;;2.30;;
4011;SDS011;2020;48.682;9.024;2023-08-30T11:02:50;3.33;;;3.20;;
4011;SDS011;2020;48.682;9.024;2023-08-30T11:05:17;2.23;;;2.13;;
4011;SDS011;2020;48.682;9.024;2023-08-30T11:07:44;2.70;;;2.60;;
4011;SDS011;2020;48.682;9.024;2023-08-30T11:10:10;3.00;;;2.90;;
4011;SDS011;2020;48.682;9.024;2023-08-30T11:12:36;6.23;;;2.93;;
4011;SDS011;2020;48.682;9.024;2023-08-30T11:15:01;2.73;;;2.63;;
4011;SDS011;2020;48.682;9.024;2023-08-30T11:17:27;2.33;;;2.33;;
4011;SDS011;2020;48.682;9.024;2023-08-30T11:19:57;3.00;;;2.90;;
4011;SDS011;2020;48.682;9.024;2023-08-30T11:22:23;2.90;;;2.80;;
4011;SDS011;2020;48.682;9.024;2023-08-30T11:24:50;2.40;;;2.30;;
4011;SDS011;2020;48.682;9.024;2023-08-30T11:27:16;2.63;;;2.53;;
4011;SDS011;2020;48.682;9.024;2023-08-30T11:29:42;4.10;;;2.73;;
4011;SDS011;2020;48.682;9.024;2023-08-30T11:32:08;3.30;;;3.20;;
4011;SDS011;2020;48.682;9.024;2023-08-30T11:34:33;3.03;;;2.93;;
4011;SDS011;2020;48.682;9.024;2023-08-30T11:36:58;2.87;;;2.77;;
4011;SDS011;2020;48.682;9.024;2023-08-30T11:39:24;1.50;;;1.50;;
4011;SDS011;2020;48.682;9.024;2023-08-30T11:41:53;1.07;;;1.07;;
4011;SDS011;2020;48.682;9.024;2023-08-30T11:44:18;1.20;;;1.20;;
4011;SDS011;2020;48.682;9.024;2023-08-30T11:46:44;1.77;;;1.67;;
4011;SDS011;2020;48.682;9.024;2023-08-30T11:49:09;5.23;;;2.10;;
4011;SDS011;2020;48.682;9.024;2023-08-30T11:51:35;2.47;;;2.37;;
4011;SDS011;2020;48.682;9.024;2023-08-30T11:54:01;2.70;;;2.50;;
4011;SDS011;2020;48.682;9.024;2023-08-30T11:56:28;2.20;;;2.10;;
4011;SDS011;2020;48.682;9.024;2023-08-30T11:58:54;3.00;;;2.80;;
4011;SDS011;2020;48.682;9.024;2023-08-30T12:01:20;2.47;;;2.37;;
4011;SDS011;2020;48.682;9.024;2023-08-30T12:03:45;2.90;;;2.80;;
4011;SDS011;2020;48.682;9.024;2023-08-30T12:06:15;3.87;;;3.67;;
4011;SDS011;2020;48.682;9.024;2023-08-30T12:08:41;2.93;;;2.80;;
4011;SDS011;2020;48.682;9.024;2023-08-30T12:11:16;2.80;;;2.70;;
4011;SDS011;2020;48.682;9.024;2023-08-30T12:13:43;2.80;;;2.40;;
4011;SDS011;2020;48.682;9.024;2023-08-30T12:16:08;3.20;;;3.10;;
4011;SDS011;2020;48.682;9.024;2023-08-30T12:18:40;3.60;;;3.50;;
4011;SDS011;2020;48.682;9.024;2023-08-30T12:21:07;3.30;;;3.20;;
4011;SDS011;2020;48.682;9.024;2023-08-30T12:23:33;3.47;;;3.37;;
4011;SDS011;2020;48.682;9.024;2023-08-30T12:26:02;3.50;;;3.40;;
4011;SDS011;2020;48.682;9.024;2023-08-30T12:28:30;2.77;;;2.67;;
4011;SDS011;2020;48.682;9.024;2023-08-30T12:30:56;2.93;;;2.83;;
4011;SDS011;2020;48.682;9.024;2023-08-30T12:33:22;3.30;;;3.17;;
4011;SDS011;2020;48.682;9.024;2023-08-30T12:35:48;2.80;;;2.70;;
4011;SDS011;2020;48.682;9.024;2023-08-30T12:38:13;2.97;;;2.87;;
4011;SDS011;2020;48.682;9.024;2023-08-30T12:40:48;2.57;;;2.37;;
4011;SDS011;2020;48.682;9.024;2023-08-30T12:43:20;2.63;;;2.43;;
4011;SDS011;2020;48.682;9.024;2023-08-30T12:45:46;2.10;;;2.10;;
4011;SDS011;2020;48.682;9.024;2023-08-30T12:48:13;2.50;;;2.40;;
4011;SDS011;2020;48.682;9.024;2023-08-30T12:50:40;2.80;;;2.70;;
4011;SDS011;2020;48.682;9.024;2023-08-30T12:53:06;2.00;;;2.00;;
4011;SDS011;2020;48.682;9.024;2023-08-30T12:55:32;3.40;;;3.20;;
4011;SDS011;2020;48.682;9.024;2023-08-30T12:57:57;2.23;;;2.23;;
4011;SDS011;2020;48.682;9.024;2023-08-30T13:00:23;3.03;;;2.83;;
4011;SDS011;2020;48.682;9.024;2023-08-30T13:02:49;2.90;;;2.70;;
4011;SDS011;2020;48.682;9.024;2023-08-30T13:05:15;2.20;;;2.13;;
4011;SDS011;2020;48.682;9.024;2023-08-30T13:07:40;2.87;;;2.77;;
4011;SDS011;2020;48.682;9.024;2023-08-30T13:10:06;2.53;;;2.43;;
4011;SDS011;2020;48.682;9.024;2023-08-30T13:12:32;2.53;;;2.43;;
4011;SDS011;2020;48.682;9.024;2023-08-30T13:14:57;2.30;;;2.20;;
4011;SDS011;2020;48.682;9.024;2023-08-30T13:17:22;1.97;;;1.87;;
4011;SDS011;2020;48.682;9.024;2023-08-30T13:19:48;1.97;;;1.87;;
4011;SDS011;2020;48.682;9.024;2023-08-30T13:22:14;2.97;;;2.80;;
4011;SDS011;2020;48.682;9.024;2023-08-30T13:24:39;2.00;;;2.00;;
4011;SDS011;2020;48.682;9.024;2023-08-30T13:27:04;1.80;;;1.80;;
4011;SDS011;2020;48.682;9.024;2023-08-30T13:29:30;2.20;;;2.10;;
4011;SDS011;2020;48.682;9.024;2023-08-30T13:31:55;1.60;;;1.60;;
4011;SDS011;2020;48.682;9.024;2023-08-30T13:34:20;2.30;;;2.20;;
4011;SDS011;2020;48.682;9.024;2023-08-30T13:36:46;1.67;;;1.67;;
4011;SDS011;2020;48.682;9.024;2023-08-30T13:39:11;2.20;;;2.10;;
4011;SDS011;2020;48.682;9.024;2023-08-30T13:41:36;1.93;;;1.83;;
4011;SDS011;2020;48.682;9.024;2023-08-30T13:44:02;1.80;;;1.70;;
4011;SDS011;2020;48.682;9.024;2023-08-30T13:46:30;1.30;;;1.30;;
4011;SDS011;2020;48.682;9.024;2023-08-30T13:48:56;1.77;;;1.67;;
4011;SDS011;2020;48.682;9.024;2023-08-30T13:51:21;1.97;;;1.97;;
4011;SDS011;2020;48.682;9.024;2023-08-30T13:53:47;1.90;;;1.90;;
4011;SDS011;2020;48.682;9.024;2023-08-30T13:56:13;1.63;;;1.63;;
4011;SDS011;2020;48.682;9.024;2023-08-30T13:58:38;4.30;;;2.40;;
4011;SDS011;2020;48.682;9.024;2023-08-30T14:01:03;2.47;;;2.47;;
4011;SDS011;2020;48.682;9.024;2023-08-30T14:03:29;2.67;;;2.50;;
4011;SDS011;2020;48.682;9.024;2023-08-30T14:05:55;2.53;;;2.43;;
4011;SDS011;2020;48.682;9.024;2023-08-30T14:08:20;1.83;;;1.83;;
4011;SDS011;2020;48.682;9.024;2023-08-30T14:10:45;1.90;;;1.80;;
4011;SDS011;2020;48.682;9.024;2023-08-30T14:13:11;2.63;;;2.30;;
4011;SDS011;2020;48.682;9.024;2023-08-30T14:15:36;2.03;;;2.03;;
4011;SDS011;2020;48.682;9.024;2023-08-30T14:18:01;1.53;;;1.50;;
4011;SDS011;2020;48.682;9.024;2023-08-30T14:20:27;2.27;;;2.27;;
4011;SDS011;2020;48.682;9.024;2023-08-30T14:22:52;1.70;;;1.60;;
4011;SDS011;2020;48.682;9.024;2023-08-30T14:25:18;1.77;;;1.77;;
4011;SDS011;2020;48.682;9.024;2023-08-30T14:27:43;2.60;;;2.50;;
4011;SDS011;2020;48.682;9.024;2023-08-30T14:30:09;1.60;;;1.60;;
4011;SDS011;2020;48.682;9.024;2023-08-30T14:32:34;2.40;;;2.30;;
4011;SDS011;2020;48.682;9.024;2023-08-30T14:34:59;1.87;;;1.87;;
4011;SDS011;2020;48.682;9.024;2023-08-30T14:37:25;2.00;;;2.00;;
4011;SDS011;2020;48.682;9.024;2023-08-30T14:39:52;2.43;;;2.43;;
4011;SDS011;2020;48.682;9.024;2023-08-30T14:42:18;2.07;;;2.07;;
4011;SDS011;2020;48.682;9.024;2023-08-30T14:44:43;2.10;;;2.10;;
4011;SDS011;2020;48.682;9.024;2023-08-30T14:47:08;1.97;;;1.97;;
4011;SDS011;2020;48.682;9.024;2023-08-30T14:49:34;4.13;;;2.17;;
4011;SDS011;2020;48.682;9.024;2023-08-30T14:51:59;2.00;;;2.00;;
4011;SDS011;2020;48.682;9.024;2023-08-30T14:54:25;2.20;;;2.10;;
4011;SDS011;2020;48.682;9.024;2023-08-30T14:56:50;1.83;;;1.83;;
4011;SDS011;2020;48.682;9.024;2023-08-30T14:59:15;1.80;;;1.80;;
4011;SDS011;2020;48.682;9.024;2023-08-30T15:01:40;1.63;;;1.63;;
4011;SDS011;2020;48.682;9.024;2023-08-30T15:04:06;1.83;;;1.83;;
4011;SDS011;2020;48.682;9.024;2023-08-30T15:06:31;1.90;;;1.90;;
4011;SDS011;2020;48.682;9.024;2023-08-30T15:08:56;2.10;;;2.00;;
4011;SDS011;2020;48.682;9.024;2023-08-30T15:11:23;2.23;;;2.13;;
4011;SDS011;2020;48.682;9.024;2023-08-30T15:13:48;1.40;;;1.40;;